sensor_id;sensor_type;location;lat;lon;timestamp;temperature;humidity
46900;DHT22;32647;49.382;7.078;2024-02-16T00:02:19;8.10;99.90
46900;DHT22;32647;49.382;7.078;2024-02-16T00:05:07;8.10;99.90
46900;DHT22;32647;49.382;7.078;2024-02-16T00:07:53;8.10;99.90
46900;DHT22;32647;49.382;7.078;2024-02-16T00:10:41;8.20;99.90
46900;DHT22;32647;49.382;7.078;2024-02-16T00:13:28;8.30;99.90
46900;DHT22;32647;49.382;7.078;2024-02-16T00:16:14;8.20;99.90
46900;DHT22;32647;49.382;7.078;2024-02-16T00:19:00;8.20;99.90
46900;DHT22;32647;49.382;7.078;2024-02-16T00:21:46;8.20;99.90
46900;DHT22;32647;49.382;7.078;2024-02-16T00:24:32;8.20;99.90
46900;DHT22;32647;49.382;7.078;2024-02-16T00:27:20;8.20;99.90
46900;DHT22;32647;49.382;7.078;2024-02-16T00:30:07;8.10;99.90
46900;DHT22;32647;49.382;7.078;2024-02-16T00:32:53;8.10;99.90
46900;DHT22;32647;49.382;7.078;2024-02-16T00:35:39;8.00;99.90
46900;DHT22;32647;49.382;7.078;2024-02-16T00:38:25;8.00;99.90
46900;DHT22;32647;49.382;7.078;2024-02-16T00:41:18;7.90;99.90
46900;DHT22;32647;49.382;7.078;2024-02-16T00:44:04;8.00;99.90
46900;DHT22;32647;49.382;7.078;2024-02-16T00:46:50;8.10;99.90
46900;DHT22;32647;49.382;7.078;2024-02-16T00:49:36;8.10;99.90
46900;DHT22;32647;49.382;7.078;2024-02-16T00:52:22;8.00;99.90
46900;DHT22;32647;49.382;7.078;2024-02-16T00:55:08;8.00;99.90
46900;DHT22;32647;49.382;7.078;2024-02-16T00:57:55;8.00;99.90
46900;DHT22;32647;49.382;7.078;2024-02-16T01:00:41;8.10;99.90
46900;DHT22;32647;49.382;7.078;2024-02-16T01:03:28;8.10;99.90
46900;DHT22;32647;49.382;7.078;2024-02-16T01:06:14;8.10;99.90
46900;DHT22;32647;49.382;7.078;2024-02-16T01:09:00;8.00;99.90
46900;DHT22;32647;49.382;7.078;2024-02-16T01:11:46;8.10;99.90
46900;DHT22;32647;49.382;7.078;2024-02-16T01:14:36;8.10;99.90
46900;DHT22;32647;49.382;7.078;2024-02-16T01:17:22;8.00;99.90
46900;DHT22;32647;49.382;7.078;2024-02-16T01:20:08;7.90;99.90
46900;DHT22;32647;49.382;7.078;2024-02-16T01:22:58;7.90;99.90
46900;DHT22;32647;49.382;7.078;2024-02-16T01:25:47;7.90;99.90
46900;DHT22;32647;49.382;7.078;2024-02-16T01:28:32;7.90;99.90
46900;DHT22;32647;49.382;7.078;2024-02-16T01:31:18;8.00;99.90
46900;DHT22;32647;49.382;7.078;2024-02-16T01:34:04;8.10;99.90
46900;DHT22;32647;49.382;7.078;2024-02-16T01:36:50;8.10;99.90
46900;DHT22;32647;49.382;7.078;2024-02-16T01:39:36;8.10;99.90
46900;DHT22;32647;49.382;7.078;2024-02-16T01:42:22;8.30;99.90
46900;DHT22;32647;49.382;7.078;2024-02-16T01:45:09;8.70;99.90
46900;DHT22;32647;49.382;7.078;2024-02-16T01:47:55;9.00;99.90
46900;DHT22;32647;49.382;7.078;2024-02-16T01:50:43;9.30;99.90
46900;DHT22;32647;49.382;7.078;2024-02-16T01:53:29;9.50;99.90
46900;DHT22;32647;49.382;7.078;2024-02-16T01:56:16;9.60;99.90
46900;DHT22;32647;49.382;7.078;2024-02-16T07:51:55;11.20;99.90
46900;DHT22;32647;49.382;7.078;2024-02-16T07:54:41;11.20;99.90
46900;DHT22;32647;49.382;7.078;2024-02-16T07:57:27;11.30;99.90
46900;DHT22;32647;49.382;7.078;2024-02-16T08:00:14;11.30;99.90
46900;DHT22;32647;49.382;7.078;2024-02-16T08:03:01;11.30;99.90
46900;DHT22;32647;49.382;7.078;2024-02-16T08:05:48;11.20;99.90
46900;DHT22;32647;49.382;7.078;2024-02-16T08:08:35;11.20;99.90
46900;DHT22;32647;49.382;7.078;2024-02-16T08:11:22;11.20;99.90
46900;DHT22;32647;49.382;7.078;2024-02-16T08:14:08;11.30;99.90
46900;DHT22;32647;49.382;7.078;2024-02-16T08:16:54;11.30;99.90
46900;DHT22;32647;49.382;7.078;2024-02-16T08:19:40;11.20;99.90
46900;DHT22;32647;49.382;7.078;2024-02-16T08:22:26;11.30;99.90
46900;DHT22;32647;49.382;7.078;2024-02-16T08:25:12;11.40;99.90
46900;DHT22;32647;49.382;7.078;2024-02-16T08:27:58;11.50;99.90
46900;DHT22;32647;49.382;7.078;2024-02-16T08:30:44;11.60;99.90
46900;DHT22;32647;49.382;7.078;2024-02-16T08:33:30;11.70;99.90
46900;DHT22;32647;49.382;7.078;2024-02-16T08:36:18;11.70;99.90
46900;DHT22;32647;49.382;7.078;2024-02-16T08:39:07;11.80;99.90
46900;DHT22;32647;49.382;7.078;2024-02-16T08:41:52;12.00;99.90
46900;DHT22;32647;49.382;7.078;2024-02-16T08:44:39;12.00;99.90
46900;DHT22;32647;49.382;7.078;2024-02-16T08:47:26;12.20;99.90
46900;DHT22;32647;49.382;7.078;2024-02-16T08:50:12;12.30;99.90
46900;DHT22;32647;49.382;7.078;2024-02-16T08:52:59;12.50;99.90
46900;DHT22;32647;49.382;7.078;2024-02-16T08:55:45;12.60;99.90
46900;DHT22;32647;49.382;7.078;2024-02-16T08:58:31;12.80;99.90
46900;DHT22;32647;49.382;7.078;2024-02-16T09:01:17;12.90;99.90
46900;DHT22;32647;49.382;7.078;2024-02-16T09:04:03;13.00;99.90
46900;DHT22;32647;49.382;7.078;2024-02-16T09:06:50;13.10;99.90
46900;DHT22;32647;49.382;7.078;2024-02-16T09:09:36;13.20;99.90
46900;DHT22;32647;49.382;7.078;2024-02-16T09:12:23;13.30;99.90
46900;DHT22;32647;49.382;7.078;2024-02-16T09:15:09;13.30;99.90
46900;DHT22;32647;49.382;7.078;2024-02-16T09:17:55;13.40;99.90
46900;DHT22;32647;49.382;7.078;2024-02-16T09:20:41;13.50;99.90
46900;DHT22;32647;49.382;7.078;2024-02-16T09:23:27;13.60;99.90
46900;DHT22;32647;49.382;7.078;2024-02-16T09:26:13;13.70;99.90
46900;DHT22;32647;49.382;7.078;2024-02-16T09:28:59;13.90;99.90
46900;DHT22;32647;49.382;7.078;2024-02-16T09:31:49;13.80;99.90
46900;DHT22;32647;49.382;7.078;2024-02-16T09:34:36;13.70;99.90
46900;DHT22;32647;49.382;7.078;2024-02-16T09:37:22;13.70;99.90
46900;DHT22;32647;49.382;7.078;2024-02-16T09:40:08;13.60;99.90
46900;DHT22;32647;49.382;7.078;2024-02-16T09:42:57;13.60;99.90
46900;DHT22;32647;49.382;7.078;2024-02-16T09:45:43;13.50;99.90
46900;DHT22;32647;49.382;7.078;2024-02-16T09:48:29;13.50;99.90
46900;DHT22;32647;49.382;7.078;2024-02-16T09:51:15;13.50;99.90
46900;DHT22;32647;49.382;7.078;2024-02-16T09:54:03;13.50;99.90
46900;DHT22;32647;49.382;7.078;2024-02-16T09:56:49;13.50;99.90
46900;DHT22;32647;49.382;7.078;2024-02-16T09:59:35;13.50;99.90
46900;DHT22;32647;49.382;7.078;2024-02-16T10:02:22;13.50;99.90
46900;DHT22;32647;49.382;7.078;2024-02-16T10:05:15;13.50;99.90
46900;DHT22;32647;49.382;7.078;2024-02-16T10:08:11;13.40;99.90
46900;DHT22;32647;49.382;7.078;2024-02-16T10:11:04;13.40;99.90
46900;DHT22;32647;49.382;7.078;2024-02-16T10:14:01;13.40;99.90
46900;DHT22;32647;49.382;7.078;2024-02-16T10:16:58;13.30;99.90
46900;DHT22;32647;49.382;7.078;2024-02-16T10:19:44;13.30;99.90
46900;DHT22;32647;49.382;7.078;2024-02-16T10:22:40;13.30;99.90
46900;DHT22;32647;49.382;7.078;2024-02-16T10:25:26;13.30;99.90
46900;DHT22;32647;49.382;7.078;2024-02-16T10:28:12;13.20;99.90
46900;DHT22;32647;49.382;7.078;2024-02-16T10:31:00;13.30;99.90
46900;DHT22;32647;49.382;7.078;2024-02-16T10:33:52;13.30;99.90
46900;DHT22;32647;49.382;7.078;2024-02-16T10:36:39;13.40;99.90
46900;DHT22;32647;49.382;7.078;2024-02-16T10:39:27;13.40;99.90
46900;DHT22;32647;49.382;7.078;2024-02-16T10:42:15;13.50;99.90
46900;DHT22;32647;49.382;7.078;2024-02-16T10:45:03;13.50;99.90
46900;DHT22;32647;49.382;7.078;2024-02-16T10:47:49;13.50;99.90
46900;DHT22;32647;49.382;7.078;2024-02-16T10:50:36;13.50;99.90
46900;DHT22;32647;49.382;7.078;2024-02-16T10:53:25;13.50;99.90
46900;DHT22;32647;49.382;7.078;2024-02-16T10:56:13;13.50;99.90
46900;DHT22;32647;49.382;7.078;2024-02-16T10:59:09;13.60;99.90
46900;DHT22;32647;49.382;7.078;2024-02-16T11:02:02;13.60;99.90
46900;DHT22;32647;49.382;7.078;2024-02-16T11:04:48;13.60;99.90
46900;DHT22;32647;49.382;7.078;2024-02-16T11:07:35;13.50;99.90
46900;DHT22;32647;49.382;7.078;2024-02-16T11:10:21;13.60;99.90
46900;DHT22;32647;49.382;7.078;2024-02-16T11:13:07;13.60;99.90
46900;DHT22;32647;49.382;7.078;2024-02-16T11:18:48;13.60;99.90
46900;DHT22;32647;49.382;7.078;2024-02-16T11:21:34;13.60;99.90
46900;DHT22;32647;49.382;7.078;2024-02-16T11:24:29;13.50;99.90
46900;DHT22;32647;49.382;7.078;2024-02-16T11:27:16;13.50;99.90
46900;DHT22;32647;49.382;7.078;2024-02-16T11:30:05;13.60;99.90
46900;DHT22;32647;49.382;7.078;2024-02-16T11:32:51;13.50;99.90
46900;DHT22;32647;49.382;7.078;2024-02-16T11:35:37;13.50;99.90
46900;DHT22;32647;49.382;7.078;2024-02-16T11:38:24;13.50;99.90
46900;DHT22;32647;49.382;7.078;2024-02-16T11:41:11;13.50;99.90
46900;DHT22;32647;49.382;7.078;2024-02-16T11:44:01;13.50;99.90
46900;DHT22;32647;49.382;7.078;2024-02-16T11:46:47;13.40;99.90
46900;DHT22;32647;49.382;7.078;2024-02-16T11:49:33;13.40;99.90
46900;DHT22;32647;49.382;7.078;2024-02-16T11:52:19;13.40;99.90
46900;DHT22;32647;49.382;7.078;2024-02-16T11:55:10;13.40;99.90
46900;DHT22;32647;49.382;7.078;2024-02-16T11:57:56;13.40;99.90
46900;DHT22;32647;49.382;7.078;2024-02-16T12:00:42;13.50;99.90
46900;DHT22;32647;49.382;7.078;2024-02-16T12:03:28;13.50;99.90
46900;DHT22;32647;49.382;7.078;2024-02-16T12:06:21;13.50;99.90
46900;DHT22;32647;49.382;7.078;2024-02-16T12:09:07;13.50;99.90
46900;DHT22;32647;49.382;7.078;2024-02-16T12:11:55;13.50;99.90
46900;DHT22;32647;49.382;7.078;2024-02-16T12:14:41;13.60;99.90
46900;DHT22;32647;49.382;7.078;2024-02-16T12:17:27;13.60;99.90
46900;DHT22;32647;49.382;7.078;2024-02-16T12:20:13;13.50;99.90
46900;DHT22;32647;49.382;7.078;2024-02-16T12:23:11;13.50;99.90
46900;DHT22;32647;49.382;7.078;2024-02-16T12:26:00;13.50;99.90
46900;DHT22;32647;49.382;7.078;2024-02-16T12:28:48;13.60;99.90
46900;DHT22;32647;49.382;7.078;2024-02-16T12:31:34;13.50;99.90
46900;DHT22;32647;49.382;7.078;2024-02-16T12:34:23;13.50;99.90
46900;DHT22;32647;49.382;7.078;2024-02-16T12:37:11;13.50;99.90
46900;DHT22;32647;49.382;7.078;2024-02-16T12:39:57;13.50;99.90
46900;DHT22;32647;49.382;7.078;2024-02-16T12:42:43;13.60;99.90
46900;DHT22;32647;49.382;7.078;2024-02-16T12:45:30;13.60;99.90
46900;DHT22;32647;49.382;7.078;2024-02-16T12:48:17;13.60;99.90
46900;DHT22;32647;49.382;7.078;2024-02-16T12:51:03;13.50;99.90
46900;DHT22;32647;49.382;7.078;2024-02-16T12:53:49;13.50;99.90
46900;DHT22;32647;49.382;7.078;2024-02-16T12:56:35;13.50;99.90
46900;DHT22;32647;49.382;7.078;2024-02-16T12:59:21;13.60;99.90
46900;DHT22;32647;49.382;7.078;2024-02-16T13:02:07;13.60;99.90
46900;DHT22;32647;49.382;7.078;2024-02-16T13:04:53;13.50;99.90
46900;DHT22;32647;49.382;7.078;2024-02-16T13:07:40;13.50;99.90
46900;DHT22;32647;49.382;7.078;2024-02-16T13:10:27;13.50;99.90
46900;DHT22;32647;49.382;7.078;2024-02-16T13:13:13;13.50;99.90
46900;DHT22;32647;49.382;7.078;2024-02-16T13:15:59;13.50;99.90
46900;DHT22;32647;49.382;7.078;2024-02-16T13:18:45;13.50;99.90
46900;DHT22;32647;49.382;7.078;2024-02-16T13:21:31;13.50;99.90
46900;DHT22;32647;49.382;7.078;2024-02-16T13:24:17;13.40;99.90
46900;DHT22;32647;49.382;7.078;2024-02-16T13:27:03;13.40;99.90
46900;DHT22;32647;49.382;7.078;2024-02-16T13:29:51;13.30;99.90
46900;DHT22;32647;49.382;7.078;2024-02-16T13:32:37;13.30;99.90
46900;DHT22;32647;49.382;7.078;2024-02-16T13:35:25;13.30;99.90
46900;DHT22;32647;49.382;7.078;2024-02-16T13:38:12;13.30;99.90
46900;DHT22;32647;49.382;7.078;2024-02-16T13:40:59;13.30;99.90
46900;DHT22;32647;49.382;7.078;2024-02-16T13:43:45;13.30;99.90
46900;DHT22;32647;49.382;7.078;2024-02-16T13:46:31;13.30;99.90
46900;DHT22;32647;49.382;7.078;2024-02-16T13:49:17;13.30;99.90
46900;DHT22;32647;49.382;7.078;2024-02-16T13:52:03;13.30;99.90
46900;DHT22;32647;49.382;7.078;2024-02-16T13:54:50;13.30;99.90
46900;DHT22;32647;49.382;7.078;2024-02-16T13:57:36;13.20;99.90
46900;DHT22;32647;49.382;7.078;2024-02-16T14:00:21;13.20;99.90
46900;DHT22;32647;49.382;7.078;2024-02-16T14:03:10;13.30;99.90
46900;DHT22;32647;49.382;7.078;2024-02-16T14:05:56;13.20;99.90
46900;DHT22;32647;49.382;7.078;2024-02-16T14:08:42;13.20;99.90
46900;DHT22;32647;49.382;7.078;2024-02-16T14:11:28;13.20;99.90
46900;DHT22;32647;49.382;7.078;2024-02-16T14:14:14;13.20;99.90
46900;DHT22;32647;49.382;7.078;2024-02-16T14:17:01;13.30;99.90
46900;DHT22;32647;49.382;7.078;2024-02-16T14:19:47;13.30;99.90
46900;DHT22;32647;49.382;7.078;2024-02-16T14:22:33;13.20;99.90
46900;DHT22;32647;49.382;7.078;2024-02-16T14:25:19;13.30;99.90
46900;DHT22;32647;49.382;7.078;2024-02-16T14:28:06;13.30;99.90
46900;DHT22;32647;49.382;7.078;2024-02-16T14:30:53;13.10;99.90
46900;DHT22;32647;49.382;7.078;2024-02-16T14:33:39;13.10;99.90
46900;DHT22;32647;49.382;7.078;2024-02-16T14:36:25;13.10;99.90
46900;DHT22;32647;49.382;7.078;2024-02-16T14:39:11;13.00;99.90
46900;DHT22;32647;49.382;7.078;2024-02-16T14:41:57;13.00;99.90
46900;DHT22;32647;49.382;7.078;2024-02-16T14:44:43;13.00;99.90
46900;DHT22;32647;49.382;7.078;2024-02-16T14:47:29;13.00;99.90
46900;DHT22;32647;49.382;7.078;2024-02-16T14:50:15;12.90;99.90
46900;DHT22;32647;49.382;7.078;2024-02-16T14:53:01;12.90;99.90
46900;DHT22;32647;49.382;7.078;2024-02-16T14:55:51;12.90;99.90
46900;DHT22;32647;49.382;7.078;2024-02-16T14:58:37;12.90;99.90
46900;DHT22;32647;49.382;7.078;2024-02-16T15:01:23;12.90;99.90
46900;DHT22;32647;49.382;7.078;2024-02-16T15:04:09;12.90;99.90
46900;DHT22;32647;49.382;7.078;2024-02-16T15:06:55;12.80;99.90
46900;DHT22;32647;49.382;7.078;2024-02-16T15:09:41;12.80;99.90
46900;DHT22;32647;49.382;7.078;2024-02-16T15:12:27;12.70;99.90
46900;DHT22;32647;49.382;7.078;2024-02-16T15:15:13;12.70;99.90
46900;DHT22;32647;49.382;7.078;2024-02-16T15:17:59;12.70;99.90
46900;DHT22;32647;49.382;7.078;2024-02-16T15:20:49;12.70;99.90
46900;DHT22;32647;49.382;7.078;2024-02-16T15:23:35;12.60;99.90
46900;DHT22;32647;49.382;7.078;2024-02-16T15:26:21;12.60;99.90
46900;DHT22;32647;49.382;7.078;2024-02-16T15:29:07;12.60;99.90
46900;DHT22;32647;49.382;7.078;2024-02-16T15:31:53;12.60;99.90
46900;DHT22;32647;49.382;7.078;2024-02-16T15:34:41;12.50;99.90
46900;DHT22;32647;49.382;7.078;2024-02-16T15:37:30;12.50;99.90
46900;DHT22;32647;49.382;7.078;2024-02-16T15:40:16;12.50;99.90
46900;DHT22;32647;49.382;7.078;2024-02-16T15:43:06;12.50;99.90
46900;DHT22;32647;49.382;7.078;2024-02-16T15:45:52;12.50;99.90
46900;DHT22;32647;49.382;7.078;2024-02-16T15:48:38;12.50;99.90
46900;DHT22;32647;49.382;7.078;2024-02-16T15:51:24;12.40;99.90
46900;DHT22;32647;49.382;7.078;2024-02-16T15:54:10;12.50;99.90
46900;DHT22;32647;49.382;7.078;2024-02-16T15:56:56;12.40;99.90
46900;DHT22;32647;49.382;7.078;2024-02-16T15:59:42;12.40;99.90
46900;DHT22;32647;49.382;7.078;2024-02-16T16:02:28;12.40;99.90
46900;DHT22;32647;49.382;7.078;2024-02-16T16:05:14;12.40;99.90
46900;DHT22;32647;49.382;7.078;2024-02-16T16:08:00;12.40;99.90
46900;DHT22;32647;49.382;7.078;2024-02-16T16:10:47;12.30;99.90
46900;DHT22;32647;49.382;7.078;2024-02-16T16:13:36;12.30;99.90
46900;DHT22;32647;49.382;7.078;2024-02-16T16:16:22;12.30;99.90
46900;DHT22;32647;49.382;7.078;2024-02-16T16:19:08;12.30;99.90
46900;DHT22;32647;49.382;7.078;2024-02-16T16:21:54;12.30;99.90
46900;DHT22;32647;49.382;7.078;2024-02-16T16:24:41;12.30;99.90
46900;DHT22;32647;49.382;7.078;2024-02-16T16:27:27;12.30;99.90
46900;DHT22;32647;49.382;7.078;2024-02-16T16:30:13;12.20;99.90
46900;DHT22;32647;49.382;7.078;2024-02-16T16:33:00;12.30;99.90
46900;DHT22;32647;49.382;7.078;2024-02-16T16:35:46;12.30;99.90
46900;DHT22;32647;49.382;7.078;2024-02-16T16:38:32;12.30;99.90
46900;DHT22;32647;49.382;7.078;2024-02-16T16:41:18;12.30;99.90
46900;DHT22;32647;49.382;7.078;2024-02-16T16:44:04;12.30;99.90
46900;DHT22;32647;49.382;7.078;2024-02-16T16:46:50;12.20;99.90
46900;DHT22;32647;49.382;7.078;2024-02-16T16:49:40;12.20;99.90
46900;DHT22;32647;49.382;7.078;2024-02-16T16:52:26;12.20;99.90
46900;DHT22;32647;49.382;7.078;2024-02-16T16:55:12;12.20;99.90
46900;DHT22;32647;49.382;7.078;2024-02-16T16:57:58;12.30;99.90
46900;DHT22;32647;49.382;7.078;2024-02-16T17:00:44;12.20;99.90
46900;DHT22;32647;49.382;7.078;2024-02-16T17:03:31;12.20;99.90
46900;DHT22;32647;49.382;7.078;2024-02-16T17:06:17;12.20;99.90
46900;DHT22;32647;49.382;7.078;2024-02-16T17:09:03;12.10;99.90
46900;DHT22;32647;49.382;7.078;2024-02-16T17:11:49;12.10;99.90
46900;DHT22;32647;49.382;7.078;2024-02-16T17:14:34;12.00;99.90
46900;DHT22;32647;49.382;7.078;2024-02-16T17:17:21;11.80;99.90
46900;DHT22;32647;49.382;7.078;2024-02-16T17:20:09;11.80;99.90
46900;DHT22;32647;49.382;7.078;2024-02-16T17:22:55;11.70;99.90
46900;DHT22;32647;49.382;7.078;2024-02-16T17:25:41;11.70;99.90
46900;DHT22;32647;49.382;7.078;2024-02-16T17:28:27;11.70;99.90
46900;DHT22;32647;49.382;7.078;2024-02-16T17:31:13;11.70;99.90
46900;DHT22;32647;49.382;7.078;2024-02-16T17:33:59;11.70;99.90
46900;DHT22;32647;49.382;7.078;2024-02-16T17:36:45;11.60;99.90
46900;DHT22;32647;49.382;7.078;2024-02-16T17:39:31;11.70;99.90
46900;DHT22;32647;49.382;7.078;2024-02-16T17:42:20;11.60;99.90
46900;DHT22;32647;49.382;7.078;2024-02-16T17:45:07;11.60;99.90
46900;DHT22;32647;49.382;7.078;2024-02-16T17:47:53;11.70;99.90
46900;DHT22;32647;49.382;7.078;2024-02-16T17:50:39;11.60;99.90
46900;DHT22;32647;49.382;7.078;2024-02-16T17:53:25;11.60;99.90
46900;DHT22;32647;49.382;7.078;2024-02-16T17:56:11;11.50;99.90
46900;DHT22;32647;49.382;7.078;2024-02-16T17:58:57;11.50;99.90
46900;DHT22;32647;49.382;7.078;2024-02-16T18:01:43;11.50;99.90
46900;DHT22;32647;49.382;7.078;2024-02-16T18:04:29;11.40;99.90
46900;DHT22;32647;49.382;7.078;2024-02-16T18:07:17;11.50;99.90
46900;DHT22;32647;49.382;7.078;2024-02-16T18:10:03;11.50;99.90
46900;DHT22;32647;49.382;7.078;2024-02-16T18:12:51;11.40;99.90
46900;DHT22;32647;49.382;7.078;2024-02-16T18:15:37;11.40;99.90
46900;DHT22;32647;49.382;7.078;2024-02-16T18:18:23;11.40;99.90
46900;DHT22;32647;49.382;7.078;2024-02-16T18:21:09;11.40;99.90
46900;DHT22;32647;49.382;7.078;2024-02-16T18:23:55;11.40;99.90
46900;DHT22;32647;49.382;7.078;2024-02-16T18:26:41;11.40;99.90
46900;DHT22;32647;49.382;7.078;2024-02-16T18:29:27;11.40;99.90
46900;DHT22;32647;49.382;7.078;2024-02-16T18:32:13;11.40;99.90
46900;DHT22;32647;49.382;7.078;2024-02-16T18:34:59;11.30;99.90
46900;DHT22;32647;49.382;7.078;2024-02-16T18:37:45;11.40;99.90
46900;DHT22;32647;49.382;7.078;2024-02-16T18:40:31;11.40;99.90
46900;DHT22;32647;49.382;7.078;2024-02-16T18:43:17;11.40;99.90
46900;DHT22;32647;49.382;7.078;2024-02-16T18:46:03;11.40;99.90
46900;DHT22;32647;49.382;7.078;2024-02-16T18:48:49;11.40;99.90
46900;DHT22;32647;49.382;7.078;2024-02-16T18:51:35;11.30;99.90
46900;DHT22;32647;49.382;7.078;2024-02-16T18:54:21;11.40;99.90
46900;DHT22;32647;49.382;7.078;2024-02-16T18:57:07;11.30;99.90
46900;DHT22;32647;49.382;7.078;2024-02-16T18:59:54;11.30;99.90
46900;DHT22;32647;49.382;7.078;2024-02-16T19:02:40;11.30;99.90
46900;DHT22;32647;49.382;7.078;2024-02-16T19:05:29;11.30;99.90
46900;DHT22;32647;49.382;7.078;2024-02-16T19:08:16;11.30;99.90
46900;DHT22;32647;49.382;7.078;2024-02-16T19:11:02;11.40;99.90
46900;DHT22;32647;49.382;7.078;2024-02-16T19:13:51;11.30;99.90
46900;DHT22;32647;49.382;7.078;2024-02-16T19:16:37;11.40;99.90
46900;DHT22;32647;49.382;7.078;2024-02-16T19:19:23;11.40;99.90
46900;DHT22;32647;49.382;7.078;2024-02-16T19:22:09;11.30;99.90
46900;DHT22;32647;49.382;7.078;2024-02-16T19:24:55;11.30;99.90
46900;DHT22;32647;49.382;7.078;2024-02-16T19:27:41;11.30;99.90
46900;DHT22;32647;49.382;7.078;2024-02-16T19:30:27;11.30;99.90
46900;DHT22;32647;49.382;7.078;2024-02-16T19:33:13;11.40;99.90
46900;DHT22;32647;49.382;7.078;2024-02-16T19:35:59;11.30;99.90
46900;DHT22;32647;49.382;7.078;2024-02-16T19:38:46;11.30;99.90
46900;DHT22;32647;49.382;7.078;2024-02-16T19:41:32;11.40;99.90
46900;DHT22;32647;49.382;7.078;2024-02-16T19:44:18;11.40;99.90
46900;DHT22;32647;49.382;7.078;2024-02-16T19:47:05;11.30;99.90
46900;DHT22;32647;49.382;7.078;2024-02-16T19:49:52;11.40;99.90
46900;DHT22;32647;49.382;7.078;2024-02-16T19:52:38;11.40;99.90
46900;DHT22;32647;49.382;7.078;2024-02-16T19:55:24;11.40;99.90
46900;DHT22;32647;49.382;7.078;2024-02-16T19:58:10;11.40;99.90
46900;DHT22;32647;49.382;7.078;2024-02-16T20:00:56;11.40;99.90
46900;DHT22;32647;49.382;7.078;2024-02-16T20:03:42;11.40;99.90
46900;DHT22;32647;49.382;7.078;2024-02-16T20:06:28;11.40;99.90
46900;DHT22;32647;49.382;7.078;2024-02-16T20:09:14;11.40;99.90
46900;DHT22;32647;49.382;7.078;2024-02-16T20:12:00;11.40;99.90
46900;DHT22;32647;49.382;7.078;2024-02-16T20:14:46;11.40;99.90
46900;DHT22;32647;49.382;7.078;2024-02-16T20:17:34;11.40;99.90
46900;DHT22;32647;49.382;7.078;2024-02-16T20:20:21;11.40;99.90
46900;DHT22;32647;49.382;7.078;2024-02-16T20:23:07;11.40;99.90
46900;DHT22;32647;49.382;7.078;2024-02-16T20:25:53;11.40;99.90
46900;DHT22;32647;49.382;7.078;2024-02-16T20:28:39;11.40;99.90
46900;DHT22;32647;49.382;7.078;2024-02-16T20:31:25;11.40;99.90
46900;DHT22;32647;49.382;7.078;2024-02-16T20:34:11;11.40;99.90
46900;DHT22;32647;49.382;7.078;2024-02-16T20:36:58;11.40;99.90
46900;DHT22;32647;49.382;7.078;2024-02-16T20:39:44;11.40;99.90
46900;DHT22;32647;49.382;7.078;2024-02-16T20:42:31;11.40;99.90
46900;DHT22;32647;49.382;7.078;2024-02-16T20:45:19;11.40;99.90
46900;DHT22;32647;49.382;7.078;2024-02-16T20:48:06;11.40;99.90
46900;DHT22;32647;49.382;7.078;2024-02-16T20:50:53;11.40;99.90
46900;DHT22;32647;49.382;7.078;2024-02-16T20:53:39;11.40;99.90
46900;DHT22;32647;49.382;7.078;2024-02-16T20:56:25;11.40;99.90
46900;DHT22;32647;49.382;7.078;2024-02-16T20:59:11;11.40;99.90
46900;DHT22;32647;49.382;7.078;2024-02-16T21:01:57;11.40;99.90
46900;DHT22;32647;49.382;7.078;2024-02-16T21:04:42;11.40;99.90
46900;DHT22;32647;49.382;7.078;2024-02-16T21:07:29;11.40;99.90
46900;DHT22;32647;49.382;7.078;2024-02-16T21:10:15;11.40;99.90
46900;DHT22;32647;49.382;7.078;2024-02-16T21:13:01;11.40;99.90
46900;DHT22;32647;49.382;7.078;2024-02-16T21:15:47;11.50;99.90
46900;DHT22;32647;49.382;7.078;2024-02-16T21:18:33;11.50;99.90
46900;DHT22;32647;49.382;7.078;2024-02-16T21:21:19;11.40;99.90
46900;DHT22;32647;49.382;7.078;2024-02-16T21:24:06;11.50;99.90
46900;DHT22;32647;49.382;7.078;2024-02-16T21:26:53;11.50;99.90
46900;DHT22;32647;49.382;7.078;2024-02-16T21:29:39;11.50;99.90
46900;DHT22;32647;49.382;7.078;2024-02-16T21:32:25;11.40;99.90
46900;DHT22;32647;49.382;7.078;2024-02-16T21:35:11;11.50;99.90
46900;DHT22;32647;49.382;7.078;2024-02-16T21:38:05;11.40;99.90
46900;DHT22;32647;49.382;7.078;2024-02-16T21:40:51;11.40;99.90
46900;DHT22;32647;49.382;7.078;2024-02-16T21:43:37;11.40;99.90
46900;DHT22;32647;49.382;7.078;2024-02-16T21:46:31;11.40;99.90
46900;DHT22;32647;49.382;7.078;2024-02-16T21:49:17;11.50;99.90
46900;DHT22;32647;49.382;7.078;2024-02-16T21:52:05;11.40;99.90
46900;DHT22;32647;49.382;7.078;2024-02-16T21:54:51;11.50;99.90
46900;DHT22;32647;49.382;7.078;2024-02-16T21:57:38;11.40;99.90
46900;DHT22;32647;49.382;7.078;2024-02-16T22:00:24;11.40;99.90
46900;DHT22;32647;49.382;7.078;2024-02-16T22:03:10;11.40;99.90
46900;DHT22;32647;49.382;7.078;2024-02-16T22:05:56;11.50;99.90
46900;DHT22;32647;49.382;7.078;2024-02-16T22:08:43;11.50;99.90
46900;DHT22;32647;49.382;7.078;2024-02-16T22:11:29;11.50;99.90
46900;DHT22;32647;49.382;7.078;2024-02-16T22:14:15;11.40;99.90
46900;DHT22;32647;49.382;7.078;2024-02-16T22:17:02;11.40;99.90
46900;DHT22;32647;49.382;7.078;2024-02-16T22:19:49;11.40;99.90
46900;DHT22;32647;49.382;7.078;2024-02-16T22:22:35;11.50;99.90
46900;DHT22;32647;49.382;7.078;2024-02-16T22:25:21;11.40;99.90
46900;DHT22;32647;49.382;7.078;2024-02-16T22:28:07;11.30;99.90
46900;DHT22;32647;49.382;7.078;2024-02-16T22:30:53;11.30;99.90
46900;DHT22;32647;49.382;7.078;2024-02-16T22:33:39;11.30;99.90
46900;DHT22;32647;49.382;7.078;2024-02-16T22:36:28;11.20;99.90
46900;DHT22;32647;49.382;7.078;2024-02-16T22:39:14;11.20;99.90
46900;DHT22;32647;49.382;7.078;2024-02-16T22:42:00;11.20;99.90
46900;DHT22;32647;49.382;7.078;2024-02-16T22:44:46;11.20;99.90
46900;DHT22;32647;49.382;7.078;2024-02-16T22:47:32;11.10;99.90
46900;DHT22;32647;49.382;7.078;2024-02-16T22:50:18;11.10;99.90
46900;DHT22;32647;49.382;7.078;2024-02-16T22:53:04;11.10;99.90
46900;DHT22;32647;49.382;7.078;2024-02-16T22:55:50;11.00;99.90
46900;DHT22;32647;49.382;7.078;2024-02-16T22:58:36;11.00;99.90
46900;DHT22;32647;49.382;7.078;2024-02-16T23:01:22;11.00;99.90
46900;DHT22;32647;49.382;7.078;2024-02-16T23:04:09;11.00;99.90
46900;DHT22;32647;49.382;7.078;2024-02-16T23:06:55;10.90;99.90
46900;DHT22;32647;49.382;7.078;2024-02-16T23:09:41;10.90;99.90
46900;DHT22;32647;49.382;7.078;2024-02-16T23:12:28;10.90;99.90
46900;DHT22;32647;49.382;7.078;2024-02-16T23:15:16;10.90;99.90
46900;DHT22;32647;49.382;7.078;2024-02-16T23:18:03;10.90;99.90
46900;DHT22;32647;49.382;7.078;2024-02-16T23:20:49;10.80;99.90
46900;DHT22;32647;49.382;7.078;2024-02-16T23:23:35;10.80;99.90
46900;DHT22;32647;49.382;7.078;2024-02-16T23:26:21;10.80;99.90
46900;DHT22;32647;49.382;7.078;2024-02-16T23:29:07;10.80;99.90
46900;DHT22;32647;49.382;7.078;2024-02-16T23:31:53;10.80;99.90